CheckWX is a tool to help pilots better visualize weather data.  It is not intended as a substitute for an official pre-flight weather briefing.

02:49:55 UTC

KMMT TAF
Mc Entire Jngb Airport
Eastover, South Carolina, USA
TAF KMMT 080000Z 0800/0906 06006KT 9999 FEW100 QNH3025INS BECMG 0818/0819 05006KT 9999 BKN020 QNH3036INS TX18/0820Z TN02/0813Z

Dec-8@
00:00 UTC

Dec-8 @ 00:00 UTC

Dec-8@
18:00 UTC

Dec-8 @ 18:00 UTC

TAF KMMT 080000Z 0800/0906 06006KT 9999 FEW100 QNH3025INS
Wind
  • 060° at 6 KTS
Cloud Levels
  • Few at 10,000' AGL

Dec-8@
18:00 UTC

Dec-8 @ 18:00 UTC

Dec-9@
06:00 UTC

Dec-9 @ 06:00 UTC

BECMG 0818/0819 05006KT 9999 BKN020 QNH3036INS TX18/0820Z TN02/0813Z

Becoming

Becoming Conditions expected by Sun, Dec 8, 2019 @ 19:00 UTC

Wind
  • 050° at 6 KTS
Cloud Levels
  • Broken at 2,000' AGL